sensor_id;sensor_type;location;lat;lon;timestamp;pressure;altitude;pressure_sealevel;temperature;humidity
73453;BME280;61687;56.232;43.854;2023-02-21T00:00:55;98581.31;;;-11.54;67.27
73453;BME280;61687;56.232;43.854;2023-02-21T00:03:40;98582.38;;;-11.55;67.59
73453;BME280;61687;56.232;43.854;2023-02-21T00:06:24;98583.19;;;-11.55;67.44
73453;BME280;61687;56.232;43.854;2023-02-21T00:09:08;98563.34;;;-11.52;67.46
73453;BME280;61687;56.232;43.854;2023-02-21T00:11:52;98570.75;;;-11.54;67.64
73453;BME280;61687;56.232;43.854;2023-02-21T00:14:37;98570.22;;;-11.51;67.45
73453;BME280;61687;56.232;43.854;2023-02-21T00:17:22;98568.38;;;-11.51;67.63
73453;BME280;61687;56.232;43.854;2023-02-21T00:20:07;98565.22;;;-11.47;67.47
73453;BME280;61687;56.232;43.854;2023-02-21T00:22:51;98572.34;;;-11.48;67.63
73453;BME280;61687;56.232;43.854;2023-02-21T00:25:36;98568.91;;;-11.48;67.56
73453;BME280;61687;56.232;43.854;2023-02-21T00:28:20;98574.72;;;-11.46;67.31
73453;BME280;61687;56.232;43.854;2023-02-21T00:31:05;98569.44;;;-11.52;67.45
73453;BME280;61687;56.232;43.854;2023-02-21T00:33:50;98567.34;;;-11.55;67.41
73453;BME280;61687;56.232;43.854;2023-02-21T00:36:35;98567.59;;;-11.56;67.40
73453;BME280;61687;56.232;43.854;2023-02-21T00:39:19;98573.94;;;-11.57;67.50
73453;BME280;61687;56.232;43.854;2023-02-21T00:42:03;98571.00;;;-11.61;67.54
73453;BME280;61687;56.232;43.854;2023-02-21T00:44:48;98563.63;;;-11.64;67.51
73453;BME280;61687;56.232;43.854;2023-02-21T00:47:32;98562.56;;;-11.63;67.58
73453;BME280;61687;56.232;43.854;2023-02-21T00:50:16;98560.97;;;-11.64;67.59
73453;BME280;61687;56.232;43.854;2023-02-21T00:53:01;98558.34;;;-11.64;67.74
73453;BME280;61687;56.232;43.854;2023-02-21T00:55:45;98553.03;;;-11.64;67.71
73453;BME280;61687;56.232;43.854;2023-02-21T00:58:29;98547.75;;;-11.64;67.69
73453;BME280;61687;56.232;43.854;2023-02-21T01:01:13;98556.50;;;-11.63;67.58
73453;BME280;61687;56.232;43.854;2023-02-21T01:03:58;98550.94;;;-11.62;67.46
73453;BME280;61687;56.232;43.854;2023-02-21T01:06:45;98543.53;;;-11.60;67.38
73453;BME280;61687;56.232;43.854;2023-02-21T01:09:29;98544.59;;;-11.61;67.36
73453;BME280;61687;56.232;43.854;2023-02-21T01:12:13;98537.47;;;-11.60;67.35
73453;BME280;61687;56.232;43.854;2023-02-21T01:14:58;98541.94;;;-11.61;67.39
73453;BME280;61687;56.232;43.854;2023-02-21T01:17:42;98553.31;;;-11.60;67.38
73453;BME280;61687;56.232;43.854;2023-02-21T01:20:27;98547.75;;;-11.59;67.34
73453;BME280;61687;56.232;43.854;2023-02-21T01:23:11;98542.47;;;-11.59;67.47
73453;BME280;61687;56.232;43.854;2023-02-21T01:25:55;98546.69;;;-11.58;67.55
73453;BME280;61687;56.232;43.854;2023-02-21T01:28:39;98532.97;;;-11.55;67.69
73453;BME280;61687;56.232;43.854;2023-02-21T01:31:24;98538.78;;;-11.47;67.49
73453;BME280;61687;56.232;43.854;2023-02-21T01:34:08;98545.38;;;-11.40;67.46
73453;BME280;61687;56.232;43.854;2023-02-21T01:36:52;98540.88;;;-11.34;67.43
73453;BME280;61687;56.232;43.854;2023-02-21T01:39:37;98539.28;;;-11.30;67.34
73453;BME280;61687;56.232;43.854;2023-02-21T01:42:21;98540.34;;;-11.26;67.34
73453;BME280;61687;56.232;43.854;2023-02-21T01:48:14;98532.94;;;-11.24;67.31
73453;BME280;61687;56.232;43.854;2023-02-21T01:51:02;98534.50;;;-11.17;67.37
73453;BME280;61687;56.232;43.854;2023-02-21T01:53:47;98532.38;;;-11.15;67.33
73453;BME280;61687;56.232;43.854;2023-02-21T01:56:32;98530.03;;;-11.22;67.46
73453;BME280;61687;56.232;43.854;2023-02-21T01:59:17;98535.81;;;-11.25;67.30
73453;BME280;61687;56.232;43.854;2023-02-21T02:02:26;98533.44;;;-11.22;67.61
73453;BME280;61687;56.232;43.854;2023-02-21T02:05:12;98528.97;;;-11.26;67.47
73453;BME280;61687;56.232;43.854;2023-02-21T02:07:57;98525.53;;;-11.22;67.48
73453;BME280;61687;56.232;43.854;2023-02-21T02:10:42;98524.19;;;-11.19;67.33
73453;BME280;61687;56.232;43.854;2023-02-21T02:16:31;98517.88;;;-11.23;67.34
73453;BME280;61687;56.232;43.854;2023-02-21T02:35:54;98513.63;;;-11.19;67.52
73453;BME280;61687;56.232;43.854;2023-02-21T02:41:13;98505.69;;;-11.29;67.48
73453;BME280;61687;56.232;43.854;2023-02-21T02:43:51;98507.59;;;-11.35;67.90
73453;BME280;61687;56.232;43.854;2023-02-21T02:46:26;98505.69;;;-11.29;67.69
73453;BME280;61687;56.232;43.854;2023-02-21T02:49:04;98498.03;;;-11.26;67.56
73453;BME280;61687;56.232;43.854;2023-02-21T02:51:35;98502.00;;;-11.23;67.25
73453;BME280;61687;56.232;43.854;2023-02-21T02:54:03;98503.06;;;-11.29;67.00
73453;BME280;61687;56.232;43.854;2023-02-21T02:56:29;98503.34;;;-11.31;67.17
73453;BME280;61687;56.232;43.854;2023-02-21T03:07:15;98503.59;;;-11.32;67.05
73453;BME280;61687;56.232;43.854;2023-02-21T03:15:23;98493.59;;;-11.56;66.70
73453;BME280;61687;56.232;43.854;2023-02-21T03:17:58;98480.09;;;-11.65;66.95
73453;BME280;61687;56.232;43.854;2023-02-21T03:20:27;98481.16;;;-11.66;67.05
73453;BME280;61687;56.232;43.854;2023-02-21T03:22:54;98502.84;;;-11.64;66.85
73453;BME280;61687;56.232;43.854;2023-02-21T03:25:22;98490.94;;;-11.72;66.78
73453;BME280;61687;56.232;43.854;2023-02-21T03:27:54;98494.66;;;-11.78;66.72
73453;BME280;61687;56.232;43.854;2023-02-21T03:30:25;98495.19;;;-11.81;66.62
73453;BME280;61687;56.232;43.854;2023-02-21T03:32:53;98484.88;;;-11.93;66.60
73453;BME280;61687;56.232;43.854;2023-02-21T03:35:22;98494.91;;;-12.00;66.68
73453;BME280;61687;56.232;43.854;2023-02-21T03:37:51;98493.34;;;-12.06;66.66
73453;BME280;61687;56.232;43.854;2023-02-21T03:40:26;98487.78;;;-12.15;66.84
73453;BME280;61687;56.232;43.854;2023-02-21T03:42:56;98484.09;;;-12.25;66.98
73453;BME280;61687;56.232;43.854;2023-02-21T03:45:24;98492.00;;;-12.30;67.03
73453;BME280;61687;56.232;43.854;2023-02-21T03:48:10;98486.44;;;-12.39;67.12
73453;BME280;61687;56.232;43.854;2023-02-21T03:50:38;98484.31;;;-12.42;67.05
73453;BME280;61687;56.232;43.854;2023-02-21T03:53:04;98487.47;;;-12.50;67.11
73453;BME280;61687;56.232;43.854;2023-02-21T03:55:32;98486.94;;;-12.57;67.04
73453;BME280;61687;56.232;43.854;2023-02-21T03:58:02;98487.19;;;-12.64;67.32
73453;BME280;61687;56.232;43.854;2023-02-21T04:00:30;98487.94;;;-12.69;67.40
73453;BME280;61687;56.232;43.854;2023-02-21T04:02:56;98490.56;;;-12.74;67.19
73453;BME280;61687;56.232;43.854;2023-02-21T04:05:31;98485.28;;;-12.79;67.11
73453;BME280;61687;56.232;43.854;2023-02-21T04:07:58;98488.44;;;-12.82;67.09
73453;BME280;61687;56.232;43.854;2023-02-21T04:10:24;98494.19;;;-12.90;67.27
73453;BME280;61687;56.232;43.854;2023-02-21T04:12:50;98492.09;;;-12.88;67.22
73453;BME280;61687;56.232;43.854;2023-02-21T04:15:16;98485.19;;;-13.05;67.08
73453;BME280;61687;56.232;43.854;2023-02-21T04:17:42;98495.16;;;-13.07;67.41
73453;BME280;61687;56.232;43.854;2023-02-21T04:20:08;98484.63;;;-13.07;67.38
73453;BME280;61687;56.232;43.854;2023-02-21T04:22:40;98498.59;;;-13.12;67.53
73453;BME280;61687;56.232;43.854;2023-02-21T04:25:06;98488.81;;;-13.16;67.47
73453;BME280;61687;56.232;43.854;2023-02-21T04:27:38;98492.78;;;-13.14;67.40
73453;BME280;61687;56.232;43.854;2023-02-21T04:30:04;98494.84;;;-13.16;67.44
73453;BME280;61687;56.232;43.854;2023-02-21T04:32:30;98501.25;;;-13.06;67.35
73453;BME280;61687;56.232;43.854;2023-02-21T04:34:58;98493.13;;;-12.95;67.23
73453;BME280;61687;56.232;43.854;2023-02-21T04:37:24;98500.53;;;-12.86;66.98
73453;BME280;61687;56.232;43.854;2023-02-21T04:39:51;98502.41;;;-12.82;66.72
73453;BME280;61687;56.232;43.854;2023-02-21T04:42:17;98497.94;;;-12.81;66.50
73453;BME280;61687;56.232;43.854;2023-02-21T04:44:43;98493.44;;;-12.81;66.53
73453;BME280;61687;56.232;43.854;2023-02-21T04:47:09;98500.59;;;-12.76;66.54
73453;BME280;61687;56.232;43.854;2023-02-21T04:49:35;98491.09;;;-12.77;66.57
73453;BME280;61687;56.232;43.854;2023-02-21T04:52:01;98492.69;;;-12.71;66.42
73453;BME280;61687;56.232;43.854;2023-02-21T04:54:27;98490.06;;;-12.66;66.52
73453;BME280;61687;56.232;43.854;2023-02-21T04:56:53;98492.16;;;-12.68;66.43
73453;BME280;61687;56.232;43.854;2023-02-21T04:59:19;98489.00;;;-12.65;66.46
73453;BME280;61687;56.232;43.854;2023-02-21T05:01:45;98488.00;;;-12.58;66.37
73453;BME280;61687;56.232;43.854;2023-02-21T05:04:10;98482.72;;;-12.53;66.16
73453;BME280;61687;56.232;43.854;2023-02-21T05:06:36;98491.97;;;-12.45;66.11
73453;BME280;61687;56.232;43.854;2023-02-21T05:09:02;98484.03;;;-12.56;65.74
73453;BME280;61687;56.232;43.854;2023-02-21T05:11:32;98470.81;;;-12.61;66.06
73453;BME280;61687;56.232;43.854;2023-02-21T05:13:59;98475.31;;;-12.61;66.17
73453;BME280;61687;56.232;43.854;2023-02-21T05:16:25;98471.63;;;-12.55;66.26
73453;BME280;61687;56.232;43.854;2023-02-21T05:18:51;98470.34;;;-12.47;65.96
73453;BME280;61687;56.232;43.854;2023-02-21T05:21:18;98472.72;;;-12.41;65.83
73453;BME280;61687;56.232;43.854;2023-02-21T05:23:45;98472.72;;;-12.35;65.63
73453;BME280;61687;56.232;43.854;2023-02-21T05:26:23;98474.56;;;-12.36;65.46
73453;BME280;61687;56.232;43.854;2023-02-21T05:28:50;98463.75;;;-12.34;65.59
73453;BME280;61687;56.232;43.854;2023-02-21T05:31:16;98460.06;;;-12.28;65.38
73453;BME280;61687;56.232;43.854;2023-02-21T05:33:42;98460.59;;;-12.26;65.43
73453;BME280;61687;56.232;43.854;2023-02-21T05:36:08;98466.13;;;-12.17;65.50
73453;BME280;61687;56.232;43.854;2023-02-21T05:38:46;98459.00;;;-12.01;65.13
73453;BME280;61687;56.232;43.854;2023-02-21T05:41:13;98456.06;;;-11.89;64.85
73453;BME280;61687;56.232;43.854;2023-02-21T05:43:39;98455.28;;;-11.85;64.55
73453;BME280;61687;56.232;43.854;2023-02-21T05:46:05;98453.69;;;-11.81;64.37
73453;BME280;61687;56.232;43.854;2023-02-21T05:48:30;98463.47;;;-11.76;64.17
73453;BME280;61687;56.232;43.854;2023-02-21T05:50:56;98456.34;;;-11.75;64.08
73453;BME280;61687;56.232;43.854;2023-02-21T05:53:22;98456.88;;;-11.73;63.93
73453;BME280;61687;56.232;43.854;2023-02-21T05:55:48;98453.69;;;-11.70;64.09
73453;BME280;61687;56.232;43.854;2023-02-21T05:58:14;98448.41;;;-11.65;63.88
73453;BME280;61687;56.232;43.854;2023-02-21T06:00:39;98447.31;;;-11.59;63.91
73453;BME280;61687;56.232;43.854;2023-02-21T06:03:05;98446.53;;;-11.54;63.81
73453;BME280;61687;56.232;43.854;2023-02-21T06:05:31;98456.06;;;-11.58;63.45
73453;BME280;61687;56.232;43.854;2023-02-21T06:07:58;98448.41;;;-11.55;63.78
73453;BME280;61687;56.232;43.854;2023-02-21T06:10:24;98441.50;;;-11.51;63.67
73453;BME280;61687;56.232;43.854;2023-02-21T06:12:50;98445.75;;;-11.50;63.61
73453;BME280;61687;56.232;43.854;2023-02-21T06:15:16;98451.81;;;-11.49;63.53
73453;BME280;61687;56.232;43.854;2023-02-21T06:17:42;98446.25;;;-11.58;63.59
73453;BME280;61687;56.232;43.854;2023-02-21T06:20:11;98447.31;;;-11.59;63.75
73453;BME280;61687;56.232;43.854;2023-02-21T06:22:39;98436.22;;;-11.51;63.80
73453;BME280;61687;56.232;43.854;2023-02-21T06:25:05;98429.59;;;-11.43;63.51
73453;BME280;61687;56.232;43.854;2023-02-21T06:27:31;98442.00;;;-11.38;63.20
73453;BME280;61687;56.232;43.854;2023-02-21T06:29:57;98440.66;;;-11.30;63.34
73453;BME280;61687;56.232;43.854;2023-02-21T06:32:23;98439.59;;;-11.24;63.21
73453;BME280;61687;56.232;43.854;2023-02-21T06:34:49;98439.28;;;-11.12;63.19
73453;BME280;61687;56.232;43.854;2023-02-21T06:37:17;98443.22;;;-10.99;63.00
73453;BME280;61687;56.232;43.854;2023-02-21T06:39:43;98448.22;;;-10.93;62.55
73453;BME280;61687;56.232;43.854;2023-02-21T06:42:13;98448.44;;;-10.89;62.36
73453;BME280;61687;56.232;43.854;2023-02-21T06:44:42;98446.56;;;-10.83;62.30
73453;BME280;61687;56.232;43.854;2023-02-21T06:47:08;98445.75;;;-10.79;62.32
73453;BME280;61687;56.232;43.854;2023-02-21T06:49:34;98439.88;;;-10.70;62.15
73453;BME280;61687;56.232;43.854;2023-02-21T06:52:00;98449.41;;;-10.69;62.01
73453;BME280;61687;56.232;43.854;2023-02-21T06:54:26;98447.78;;;-10.65;62.34
73453;BME280;61687;56.232;43.854;2023-02-21T06:56:52;98447.50;;;-10.58;62.09
73453;BME280;61687;56.232;43.854;2023-02-21T06:59:18;98445.84;;;-10.44;62.24
73453;BME280;61687;56.232;43.854;2023-02-21T07:01:43;98445.47;;;-10.32;61.72
73453;BME280;61687;56.232;43.854;2023-02-21T07:04:09;98440.13;;;-10.27;61.29
73453;BME280;61687;56.232;43.854;2023-02-21T07:06:35;98448.94;;;-10.37;61.24
73453;BME280;61687;56.232;43.854;2023-02-21T07:09:01;98443.19;;;-10.44;61.38
73453;BME280;61687;56.232;43.854;2023-02-21T07:11:27;98444.19;;;-10.40;61.64
73453;BME280;61687;56.232;43.854;2023-02-21T07:13:55;98438.34;;;-10.37;61.53
73453;BME280;61687;56.232;43.854;2023-02-21T07:16:24;98437.94;;;-10.20;61.89
73453;BME280;61687;56.232;43.854;2023-02-21T07:18:50;98444.66;;;-9.98;61.56
73453;BME280;61687;56.232;43.854;2023-02-21T07:21:17;98446.41;;;-9.83;61.10
73453;BME280;61687;56.232;43.854;2023-02-21T07:23:44;98446.09;;;-9.76;61.01
73453;BME280;61687;56.232;43.854;2023-02-21T07:26:12;98444.84;;;-9.84;61.07
73453;BME280;61687;56.232;43.854;2023-02-21T07:28:38;98444.34;;;-9.86;61.32
73453;BME280;61687;56.232;43.854;2023-02-21T07:31:04;98443.03;;;-9.88;61.64
73453;BME280;61687;56.232;43.854;2023-02-21T07:33:30;98443.78;;;-9.88;61.53
73453;BME280;61687;56.232;43.854;2023-02-21T07:35:56;98445.34;;;-9.82;61.84
73453;BME280;61687;56.232;43.854;2023-02-21T07:38:24;98433.88;;;-9.72;61.44
73453;BME280;61687;56.232;43.854;2023-02-21T07:40:53;98434.59;;;-9.66;61.13
73453;BME280;61687;56.232;43.854;2023-02-21T07:43:19;98441.91;;;-9.53;60.75
73453;BME280;61687;56.232;43.854;2023-02-21T07:45:45;98444.66;;;-9.39;60.74
73453;BME280;61687;56.232;43.854;2023-02-21T07:48:11;98439.94;;;-9.17;60.47
73453;BME280;61687;56.232;43.854;2023-02-21T07:50:42;98447.22;;;-9.04;60.10
73453;BME280;61687;56.232;43.854;2023-02-21T07:53:09;98441.09;;;-8.80;60.15
73453;BME280;61687;56.232;43.854;2023-02-21T07:55:35;98441.53;;;-8.54;59.37
73453;BME280;61687;56.232;43.854;2023-02-21T07:58:01;98439.06;;;-8.31;59.01
73453;BME280;61687;56.232;43.854;2023-02-21T08:00:27;98440.47;;;-8.00;59.01
73453;BME280;61687;56.232;43.854;2023-02-21T08:02:53;98445.13;;;-7.92;57.93
73453;BME280;61687;56.232;43.854;2023-02-21T08:05:19;98433.16;;;-7.76;58.49
73453;BME280;61687;56.232;43.854;2023-02-21T08:07:46;98437.03;;;-7.54;58.09
73453;BME280;61687;56.232;43.854;2023-02-21T08:10:18;98440.41;;;-7.34;57.64
73453;BME280;61687;56.232;43.854;2023-02-21T08:12:44;98444.19;;;-7.21;57.06
73453;BME280;61687;56.232;43.854;2023-02-21T08:15:10;98442.69;;;-7.13;57.05
73453;BME280;61687;56.232;43.854;2023-02-21T08:17:36;98442.13;;;-7.10;56.25
73453;BME280;61687;56.232;43.854;2023-02-21T08:20:02;98434.19;;;-7.01;56.75
73453;BME280;61687;56.232;43.854;2023-02-21T08:22:29;98440.09;;;-6.91;56.79
73453;BME280;61687;56.232;43.854;2023-02-21T08:24:54;98447.78;;;-6.75;56.70
73453;BME280;61687;56.232;43.854;2023-02-21T08:27:20;98434.28;;;-6.65;56.55
73453;BME280;61687;56.232;43.854;2023-02-21T08:29:49;98438.69;;;-6.60;55.94
73453;BME280;61687;56.232;43.854;2023-02-21T08:32:16;98446.38;;;-6.58;55.90
73453;BME280;61687;56.232;43.854;2023-02-21T08:34:46;98437.25;;;-6.80;55.43
73453;BME280;61687;56.232;43.854;2023-02-21T08:37:12;98435.09;;;-6.92;55.32
73453;BME280;61687;56.232;43.854;2023-02-21T08:39:48;98436.75;;;-6.82;55.71
73453;BME280;61687;56.232;43.854;2023-02-21T08:42:15;98442.47;;;-6.75;55.41
73453;BME280;61687;56.232;43.854;2023-02-21T08:44:47;98435.94;;;-6.69;55.60
73453;BME280;61687;56.232;43.854;2023-02-21T08:47:14;98434.34;;;-6.56;55.48
73453;BME280;61687;56.232;43.854;2023-02-21T08:49:45;98427.44;;;-6.57;55.05
73453;BME280;61687;56.232;43.854;2023-02-21T08:52:16;98434.03;;;-6.54;55.14
73453;BME280;61687;56.232;43.854;2023-02-21T08:54:42;98428.03;;;-6.46;55.64
73453;BME280;61687;56.232;43.854;2023-02-21T08:57:08;98429.72;;;-6.27;55.60
73453;BME280;61687;56.232;43.854;2023-02-21T08:59:34;98424.69;;;-6.06;55.46
73453;BME280;61687;56.232;43.854;2023-02-21T09:02:02;98427.28;;;-5.92;54.65
73453;BME280;61687;56.232;43.854;2023-02-21T09:04:28;98435.03;;;-5.82;54.62
73453;BME280;61687;56.232;43.854;2023-02-21T09:06:55;98429.13;;;-6.24;53.83
73453;BME280;61687;56.232;43.854;2023-02-21T09:09:21;98433.84;;;-6.44;54.15
73453;BME280;61687;56.232;43.854;2023-02-21T09:11:47;98432.69;;;-6.29;55.21
73453;BME280;61687;56.232;43.854;2023-02-21T09:14:15;98431.16;;;-5.98;55.14
73453;BME280;61687;56.232;43.854;2023-02-21T09:16:41;98426.16;;;-5.68;54.43
73453;BME280;61687;56.232;43.854;2023-02-21T09:19:08;98426.03;;;-5.86;53.83
73453;BME280;61687;56.232;43.854;2023-02-21T09:21:34;98428.00;;;-6.00;53.51
73453;BME280;61687;56.232;43.854;2023-02-21T09:24:00;98430.22;;;-6.25;53.84
73453;BME280;61687;56.232;43.854;2023-02-21T09:26:28;98433.91;;;-6.49;54.49
73453;BME280;61687;56.232;43.854;2023-02-21T09:28:56;98425.94;;;-6.49;54.78
73453;BME280;61687;56.232;43.854;2023-02-21T09:31:23;98422.16;;;-6.34;54.77
73453;BME280;61687;56.232;43.854;2023-02-21T09:33:49;98421.41;;;-6.26;54.22
73453;BME280;61687;56.232;43.854;2023-02-21T09:36:15;98417.31;;;-6.32;54.16
73453;BME280;61687;56.232;43.854;2023-02-21T09:38:41;98414.97;;;-6.48;54.29
73453;BME280;61687;56.232;43.854;2023-02-21T09:41:09;98412.34;;;-6.62;54.97
73453;BME280;61687;56.232;43.854;2023-02-21T09:43:39;98412.59;;;-6.49;55.37
73453;BME280;61687;56.232;43.854;2023-02-21T09:46:14;98414.09;;;-6.43;55.50
73453;BME280;61687;56.232;43.854;2023-02-21T09:48:43;98420.69;;;-6.18;55.32
73453;BME280;61687;56.232;43.854;2023-02-21T09:51:10;98419.31;;;-5.83;55.26
73453;BME280;61687;56.232;43.854;2023-02-21T09:53:41;98415.75;;;-5.47;54.38
73453;BME280;61687;56.232;43.854;2023-02-21T09:56:34;98422.97;;;-5.48;53.24
73453;BME280;61687;56.232;43.854;2023-02-21T09:59:03;98412.72;;;-5.54;53.40
73453;BME280;61687;56.232;43.854;2023-02-21T10:01:46;98416.47;;;-5.24;53.62
73453;BME280;61687;56.232;43.854;2023-02-21T10:18:26;98415.69;;;-4.40;53.82
73453;BME280;61687;56.232;43.854;2023-02-21T10:20:57;98421.19;;;-4.19;53.75
73453;BME280;61687;56.232;43.854;2023-02-21T10:23:30;98423.22;;;-4.60;53.21
73453;BME280;61687;56.232;43.854;2023-02-21T10:26:03;98430.19;;;-4.99;54.18
73453;BME280;61687;56.232;43.854;2023-02-21T10:28:32;98428.34;;;-5.39;55.13
73453;BME280;61687;56.232;43.854;2023-02-21T10:31:01;98437.59;;;-5.99;56.17
73453;BME280;61687;56.232;43.854;2023-02-21T10:33:28;98431.47;;;-6.23;57.61
73453;BME280;61687;56.232;43.854;2023-02-21T10:35:54;98432.28;;;-6.22;58.00
73453;BME280;61687;56.232;43.854;2023-02-21T10:38:24;98430.63;;;-6.32;57.65
73453;BME280;61687;56.232;43.854;2023-02-21T10:40:56;98433.56;;;-6.56;58.14
73453;BME280;61687;56.232;43.854;2023-02-21T10:43:30;98437.94;;;-6.74;58.34
73453;BME280;61687;56.232;43.854;2023-02-21T10:48:42;98444.63;;;-6.77;58.88
73453;BME280;61687;56.232;43.854;2023-02-21T10:51:14;98446.19;;;-6.62;58.66
73453;BME280;61687;56.232;43.854;2023-02-21T10:53:45;98446.63;;;-6.32;58.38
73453;BME280;61687;56.232;43.854;2023-02-21T11:01:30;98438.84;;;-5.97;57.88
73453;BME280;61687;56.232;43.854;2023-02-21T11:04:02;98439.47;;;-6.23;58.37
73453;BME280;61687;56.232;43.854;2023-02-21T11:08:55;98443.66;;;-6.30;59.82
73453;BME280;61687;56.232;43.854;2023-02-21T11:11:38;98443.50;;;-6.11;59.88
73453;BME280;61687;56.232;43.854;2023-02-21T11:16:42;98453.97;;;-6.52;60.60
73453;BME280;61687;56.232;43.854;2023-02-21T11:19:12;98451.66;;;-6.30;60.77
73453;BME280;61687;56.232;43.854;2023-02-21T11:21:40;98456.22;;;-6.08;60.43
73453;BME280;61687;56.232;43.854;2023-02-21T11:24:07;98457.22;;;-5.95;59.84
73453;BME280;61687;56.232;43.854;2023-02-21T11:26:43;98459.91;;;-6.18;58.23
73453;BME280;61687;56.232;43.854;2023-02-21T11:29:17;98464.47;;;-6.33;58.83
73453;BME280;61687;56.232;43.854;2023-02-21T11:31:45;98461.59;;;-6.22;59.18
73453;BME280;61687;56.232;43.854;2023-02-21T11:34:12;98463.47;;;-6.23;58.95
73453;BME280;61687;56.232;43.854;2023-02-21T11:36:41;98463.31;;;-6.04;59.08
73453;BME280;61687;56.232;43.854;2023-02-21T11:41:50;98455.63;;;-6.42;59.32
73453;BME280;61687;56.232;43.854;2023-02-21T11:44:39;98462.34;;;-6.44;59.43
73453;BME280;61687;56.232;43.854;2023-02-21T11:47:14;98463.28;;;-6.26;59.81
73453;BME280;61687;56.232;43.854;2023-02-21T11:50:06;98460.59;;;-6.26;59.13
73453;BME280;61687;56.232;43.854;2023-02-21T11:55:12;98461.44;;;-6.40;59.53
73453;BME280;61687;56.232;43.854;2023-02-21T12:12:40;98468.91;;;-7.07;60.27
73453;BME280;61687;56.232;43.854;2023-02-21T12:15:02;98471.47;;;-6.73;60.28
73453;BME280;61687;56.232;43.854;2023-02-21T12:31:11;98479.84;;;-5.93;60.16
73453;BME280;61687;56.232;43.854;2023-02-21T12:33:45;98483.16;;;-5.87;59.75
73453;BME280;61687;56.232;43.854;2023-02-21T12:39:53;98495.66;;;-6.19;59.30
73453;BME280;61687;56.232;43.854;2023-02-21T12:48:01;98503.97;;;-6.35;60.58
73453;BME280;61687;56.232;43.854;2023-02-21T12:50:38;98502.28;;;-6.30;60.35
73453;BME280;61687;56.232;43.854;2023-02-21T12:53:28;98503.50;;;-6.37;60.40
73453;BME280;61687;56.232;43.854;2023-02-21T12:56:05;98500.59;;;-6.26;60.70
73453;BME280;61687;56.232;43.854;2023-02-21T12:58:52;98509.28;;;-6.21;61.08
73453;BME280;61687;56.232;43.854;2023-02-21T13:01:30;98519.06;;;-6.16;61.11
73453;BME280;61687;56.232;43.854;2023-02-21T13:06:52;98505.97;;;-6.54;61.50
73453;BME280;61687;56.232;43.854;2023-02-21T13:12:05;98519.13;;;-7.00;62.73
73453;BME280;61687;56.232;43.854;2023-02-21T13:17:03;98517.84;;;-6.88;62.97
73453;BME280;61687;56.232;43.854;2023-02-21T13:19:52;98517.44;;;-6.82;62.69
73453;BME280;61687;56.232;43.854;2023-02-21T13:22:37;98524.94;;;-6.70;62.51
73453;BME280;61687;56.232;43.854;2023-02-21T13:28:23;98523.66;;;-6.58;62.18
73453;BME280;61687;56.232;43.854;2023-02-21T13:31:00;98523.56;;;-6.53;62.30
73453;BME280;61687;56.232;43.854;2023-02-21T13:33:37;98520.19;;;-6.45;62.47
73453;BME280;61687;56.232;43.854;2023-02-21T13:39:26;98530.88;;;-6.45;62.44
73453;BME280;61687;56.232;43.854;2023-02-21T13:42:14;98529.69;;;-6.67;62.68
73453;BME280;61687;56.232;43.854;2023-02-21T13:44:47;98531.84;;;-6.83;62.91
73453;BME280;61687;56.232;43.854;2023-02-21T13:47:19;98531.81;;;-7.11;63.40
73453;BME280;61687;56.232;43.854;2023-02-21T13:57:42;98554.78;;;-7.48;65.32
73453;BME280;61687;56.232;43.854;2023-02-21T14:10:52;98556.91;;;-7.64;65.96
73453;BME280;61687;56.232;43.854;2023-02-21T14:16:06;98560.94;;;-7.67;66.06
73453;BME280;61687;56.232;43.854;2023-02-21T14:18:50;98569.34;;;-7.59;66.19
73453;BME280;61687;56.232;43.854;2023-02-21T14:21:38;98577.34;;;-7.59;66.15
73453;BME280;61687;56.232;43.854;2023-02-21T14:24:11;98569.50;;;-7.70;66.15
73453;BME280;61687;56.232;43.854;2023-02-21T14:26:39;98576.34;;;-7.83;66.40
73453;BME280;61687;56.232;43.854;2023-02-21T14:36:59;98578.91;;;-8.16;67.61
73453;BME280;61687;56.232;43.854;2023-02-21T14:39:36;98590.09;;;-8.19;67.80
73453;BME280;61687;56.232;43.854;2023-02-21T14:56:34;98609.09;;;-8.74;69.65
73453;BME280;61687;56.232;43.854;2023-02-21T15:01:57;98604.06;;;-8.76;69.80
73453;BME280;61687;56.232;43.854;2023-02-21T15:09:32;98617.03;;;-8.99;71.34
73453;BME280;61687;56.232;43.854;2023-02-21T15:11:58;98622.91;;;-9.07;71.61
73453;BME280;61687;56.232;43.854;2023-02-21T15:14:26;98623.78;;;-9.12;71.68
73453;BME280;61687;56.232;43.854;2023-02-21T15:16:59;98628.28;;;-9.12;71.70
73453;BME280;61687;56.232;43.854;2023-02-21T15:19:32;98626.69;;;-9.13;71.91
73453;BME280;61687;56.232;43.854;2023-02-21T15:22:21;98622.22;;;-9.18;72.22
73453;BME280;61687;56.232;43.854;2023-02-21T15:30:18;98622.00;;;-9.22;72.63
73453;BME280;61687;56.232;43.854;2023-02-21T15:33:04;98637.31;;;-9.13;72.20
73453;BME280;61687;56.232;43.854;2023-02-21T15:35:34;98645.78;;;-9.11;72.24
73453;BME280;61687;56.232;43.854;2023-02-21T15:38:03;98639.88;;;-9.03;72.18
73453;BME280;61687;56.232;43.854;2023-02-21T15:40:31;98640.44;;;-9.06;72.07
73453;BME280;61687;56.232;43.854;2023-02-21T15:42:57;98632.78;;;-9.13;72.30
73453;BME280;61687;56.232;43.854;2023-02-21T15:45:26;98640.22;;;-9.15;72.41
73453;BME280;61687;56.232;43.854;2023-02-21T15:47:55;98643.75;;;-9.20;72.51
73453;BME280;61687;56.232;43.854;2023-02-21T15:50:33;98648.78;;;-9.23;72.88
73453;BME280;61687;56.232;43.854;2023-02-21T15:53:23;98645.34;;;-9.24;72.87
73453;BME280;61687;56.232;43.854;2023-02-21T15:55:51;98644.56;;;-9.24;72.79
73453;BME280;61687;56.232;43.854;2023-02-21T15:58:19;98656.00;;;-9.29;73.08
73453;BME280;61687;56.232;43.854;2023-02-21T16:01:09;98647.00;;;-9.33;73.27
73453;BME280;61687;56.232;43.854;2023-02-21T16:03:42;98656.09;;;-9.39;73.56
73453;BME280;61687;56.232;43.854;2023-02-21T16:06:13;98657.63;;;-9.33;73.42
73453;BME280;61687;56.232;43.854;2023-02-21T16:14:46;98656.00;;;-9.29;73.45
73453;BME280;61687;56.232;43.854;2023-02-21T16:17:23;98660.38;;;-9.14;73.10